Time;durP1;ratioP1;P1;durP2;ratioP2;P2;SDS_P1;SDS_P2;PMS_P1;PMS_P2;Temp;Humidity;BMP_temperature;BMP_pressure;BME280_temperature;BME280_humidity;BME280_pressure;Samples;Min_cycle;Max_cycle;Signal;HPM_P1;HPM_P2
2021/11/08 00:02:27;;;;;;;46.95;28.02;;;;;;;7.52;100.00;100211.00;6298178;28;20036;-73
2021/11/08 00:05:29;;;;;;;46.75;27.90;;;;;;;7.58;100.00;100217.69;6296744;28;20127;-73
2021/11/08 00:08:30;;;;;;;49.28;26.35;;;;;;;7.60;100.00;100182.09;6296794;28;20036;-73
2021/11/08 00:11:32;;;;;;;43.78;25.95;;;;;;;7.49;100.00;100130.66;6289213;28;20045;-73
2021/11/08 00:14:33;;;;;;;52.50;27.10;;;;;;;7.46;100.00;100125.63;6271794;28;20097;-73
2021/11/08 00:17:47;;;;;;;47.80;27.25;;;;;;;7.44;100.00;100154.22;6255047;28;20049;-73
2021/11/08 00:20:50;;;;;;;47.13;27.05;;;;;;;7.40;100.00;100178.66;6256958;28;20052;-73
2021/11/08 00:23:51;;;;;;;49.72;28.05;;;;;;;7.35;100.00;100183.22;6272580;28;20055;-73
2021/11/08 00:26:53;;;;;;;49.10;27.52;;;;;;;7.41;100.00;100185.53;6278119;28;20041;-73
2021/11/08 00:29:54;;;;;;;49.58;28.13;;;;;;;7.47;100.00;100168.81;6296196;28;20437;-73
2021/11/08 00:32:55;;;;;;;51.20;28.40;;;;;;;7.43;100.00;100162.09;6276085;28;20060;-73
2021/11/08 00:35:58;;;;;;;50.15;27.73;;;;;;;7.46;100.00;100157.59;6271044;28;20045;-73
2021/11/08 00:38:59;;;;;;;47.30;28.17;;;;;;;7.44;100.00;100159.44;6271164;28;20044;-73
2021/11/08 00:42:00;;;;;;;45.70;26.48;;;;;;;7.46;100.00;100175.78;6272354;28;20503;-73
2021/11/08 00:45:01;;;;;;;46.03;27.37;;;;;;;7.42;100.00;100171.63;6253983;28;20099;-73
2021/11/08 00:48:03;;;;;;;46.28;27.02;;;;;;;7.45;100.00;100181.03;6254006;28;20063;-73
2021/11/08 00:51:04;;;;;;;51.75;28.80;;;;;;;7.47;100.00;100187.00;6270009;28;20060;-73
2021/11/08 00:54:09;;;;;;;52.15;28.15;;;;;;;7.44;100.00;100175.00;6270035;28;20134;-73
2021/11/08 00:57:12;;;;;;;43.72;26.73;;;;;;;7.45;100.00;100165.44;6221636;28;20431;-73
2021/11/08 01:00:18;;;;;;;44.83;26.27;;;;;;;7.49;100.00;100166.16;6271655;28;20041;-70
2021/11/08 01:03:21;;;;;;;50.28;27.05;;;;;;;7.46;100.00;100155.00;6271410;28;20049;-70
2021/11/08 01:06:23;;;;;;;46.20;27.50;;;;;;;7.45;100.00;100144.69;6270669;28;20122;-70
2021/11/08 01:09:24;;;;;;;43.22;27.80;;;;;;;7.47;100.00;100146.31;6271857;28;20052;-70
2021/11/08 01:12:26;;;;;;;39.90;24.80;;;;;;;7.45;100.00;100149.88;6254007;28;20037;-70
2021/11/08 01:15:27;;;;;;;42.53;26.52;;;;;;;7.43;100.00;100165.56;6271764;28;20041;-70
2021/11/08 01:18:28;;;;;;;43.55;26.00;;;;;;;7.45;100.00;100174.09;6270446;28;20091;-70
2021/11/08 01:21:29;;;;;;;41.53;26.33;;;;;;;7.46;100.00;100164.56;6303950;28;20555;-73
2021/11/08 01:24:32;;;;;;;44.13;26.73;;;;;;;7.46;100.00;100180.13;6254305;28;20130;-73
2021/11/08 01:27:40;;;;;;;42.63;25.63;;;;;;;7.45;100.00;100192.28;6254009;28;20182;-73
2021/11/08 01:30:41;;;;;;;41.92;25.20;;;;;;;7.45;100.00;100162.84;6271621;28;20051;-73
2021/11/08 01:33:44;;;;;;;44.08;27.27;;;;;;;7.47;100.00;100145.44;6270353;28;20041;-73
2021/11/08 01:36:51;;;;;;;48.95;27.40;;;;;;;7.49;100.00;100129.81;6270400;28;20094;-73
2021/11/08 01:39:52;;;;;;;44.50;26.80;;;;;;;7.48;100.00;100136.78;6254654;28;20952;-73
2021/11/08 01:42:52;;;;;;;47.42;28.55;;;;;;;7.49;100.00;100140.19;6270425;28;20049;-73
2021/11/08 01:45:53;;;;;;;45.67;27.85;;;;;;;7.43;100.00;100142.19;6283939;28;20094;-73
2021/11/08 01:48:54;;;;;;;48.97;28.33;;;;;;;7.41;100.00;100148.34;6252872;28;20041;-73
2021/11/08 01:51:57;;;;;;;45.55;27.88;;;;;;;7.44;100.00;100151.63;6269249;28;20494;-74
2021/11/08 01:54:58;;;;;;;;;;;;;;;7.43;100.00;100162.94;6270648;28;20037;-73
2021/11/08 01:58:00;;;;;;;39.95;25.13;;;;;;;7.44;100.00;100156.84;6274728;28;20284;-73
2021/11/08 02:01:01;;;;;;;45.40;26.88;;;;;;;7.45;100.00;100166.31;6263281;28;20052;-73
2021/11/08 02:04:02;;;;;;;41.25;26.02;;;;;;;7.44;100.00;100164.63;6300962;28;20049;-73
2021/11/08 02:07:04;;;;;;;45.38;26.15;;;;;;;7.50;100.00;100168.69;6299269;28;20052;-73
2021/11/08 02:10:07;;;;;;;42.08;26.92;;;;;;;7.50;100.00;100144.50;6282891;28;20474;-73
2021/11/08 02:13:08;;;;;;;46.20;27.40;;;;;;;7.42;100.00;100124.06;6300473;28;20068;-73
2021/11/08 02:16:09;;;;;;;41.28;26.42;;;;;;;7.37;100.00;100129.50;6299515;28;20478;-73
2021/11/08 02:19:10;;;;;;;51.00;26.17;;;;;;;7.40;100.00;100160.47;6299539;28;20048;-73
2021/11/08 02:22:11;;;;;;;47.30;27.33;;;;;;;7.48;100.00;100160.13;6282573;28;20123;-73
2021/11/08 02:25:12;;;;;;;41.15;25.23;;;;;;;7.49;100.00;100169.59;6298104;28;20050;-74
2021/11/08 02:28:14;;;;;;;38.33;25.40;;;;;;;7.46;100.00;100146.38;6299156;28;20048;-74
2021/11/08 02:31:18;;;;;;;42.97;26.70;;;;;;;7.39;100.00;100122.47;6300352;28;20045;-74
2021/11/08 02:34:19;;;;;;;41.38;25.75;;;;;;;7.31;100.00;100111.59;6298993;28;20113;-74
2021/11/08 02:37:20;;;;;;;40.28;26.17;;;;;;;7.29;100.00;100138.53;6282384;28;20116;-74
2021/11/08 02:40:24;;;;;;;42.63;25.88;;;;;;;7.36;100.00;100153.75;6300021;28;20051;-74
2021/11/08 02:43:26;;;;;;;48.10;26.92;;;;;;;7.41;100.00;100158.72;6282821;28;20040;-74
2021/11/08 02:46:27;;;;;;;;;;;;;;;7.39;100.00;100156.22;6300767;28;20078;-74
2021/11/08 02:49:31;;;;;;;43.75;24.55;;;;;;;7.38;100.00;100102.59;6274084;28;19927;-74
2021/11/08 02:52:31;;;;;;;44.45;26.13;;;;;;;7.29;100.00;100108.25;6273644;28;20132;-74
2021/11/08 02:55:33;;;;;;;50.75;28.85;;;;;;;7.31;100.00;100141.88;6273812;28;20045;-74
2021/11/08 02:58:37;;;;;;;43.95;26.88;;;;;;;7.37;100.00;100141.59;6274946;28;20052;-74
2021/11/08 03:01:38;;;;;;;52.85;27.88;;;;;;;7.29;100.00;100136.78;6273503;28;20041;-73
2021/11/08 03:04:41;;;;;;;44.28;26.92;;;;;;;7.33;100.00;100137.47;6273553;28;20099;-73
2021/11/08 03:07:43;;;;;;;48.53;28.27;;;;;;;7.33;100.00;100117.56;6273140;28;20056;-74
2021/11/08 03:10:44;;;;;;;51.57;29.00;;;;;;;7.33;100.00;100112.38;6273339;28;20381;-70
2021/11/08 03:13:54;;;;;;;49.22;28.30;;;;;;;7.38;100.00;100130.31;6274307;28;20044;-71
2021/11/08 03:16:58;;;;;;;45.97;27.10;;;;;;;7.35;100.00;100107.09;6274196;28;20376;-70
2021/11/08 03:19:59;;;;;;;52.60;28.50;;;;;;;7.18;100.00;100116.50;6256270;28;20483;-70
2021/11/08 03:23:03;;;;;;;46.22;28.17;;;;;;;7.22;100.00;100148.34;6272999;28;20124;-70
2021/11/08 03:26:13;;;;;;;47.63;27.30;;;;;;;7.23;100.00;100143.09;6273130;28;20041;-74
2021/11/08 03:29:15;;;;;;;50.97;28.35;;;;;;;7.29;100.00;100135.91;6274048;28;20044;-74
2021/11/08 03:32:16;;;;;;;47.53;27.65;;;;;;;7.30;100.00;100148.00;6306238;28;20484;-74
2021/11/08 03:35:21;;;;;;;55.70;28.92;;;;;;;7.31;100.00;100137.56;6274305;28;20098;-74
2021/11/08 03:38:22;;;;;;;45.05;26.10;;;;;;;7.30;100.00;100102.13;6272316;28;20488;-71
2021/11/08 03:41:23;;;;;;;51.67;28.17;;;;;;;7.20;100.00;100100.84;6255977;28;20049;-71
2021/11/08 03:44:23;;;;;;;49.92;29.98;;;;;;;7.17;100.00;100080.25;6271611;28;20041;-70
2021/11/08 03:47:24;;;;;;;60.38;33.67;;;;;;;7.19;100.00;100081.03;6271472;28;20055;-70
2021/11/08 03:50:26;;;;;;;52.47;29.27;;;;;;;7.18;100.00;100066.34;6255623;28;20067;-74
2021/11/08 03:53:27;;;;;;;50.58;29.50;;;;;;;7.18;100.00;100074.97;6256117;28;20037;-75
2021/11/08 03:56:29;;;;;;;52.05;28.92;;;;;;;7.22;100.00;100101.63;6272351;28;20064;-75
2021/11/08 03:59:30;;;;;;;56.97;31.63;;;;;;;7.23;100.00;100124.94;6255984;28;20121;-74
2021/11/08 04:02:31;;;;;;;57.75;29.92;;;;;;;7.25;100.00;100143.88;6273564;28;20041;-74
2021/11/08 04:05:34;;;;;;;47.63;28.92;;;;;;;7.30;100.00;100142.81;6239158;28;20147;-72
2021/11/08 04:08:36;;;;;;;55.92;31.20;;;;;;;7.29;100.00;100174.84;6273017;28;20041;-71
2021/11/08 04:11:37;;;;;;;56.72;30.88;;;;;;;7.26;100.00;100200.03;6272817;28;20456;-71
2021/11/08 04:14:39;;;;;;;61.28;31.27;;;;;;;7.37;100.00;100215.16;6271838;28;20037;-71
2021/11/08 04:17:45;;;;;;;;;;;;;;;7.45;100.00;100231.22;6255709;28;20079;-71
2021/11/08 04:20:48;;;;;;;55.47;29.83;;;;;;;7.46;100.00;100238.09;6270934;28;19921;-72
2021/11/08 04:23:49;;;;;;;51.90;29.10;;;;;;;7.44;100.00;100226.94;6272846;28;20067;-71
2021/11/08 04:26:51;;;;;;;55.75;29.92;;;;;;;7.47;100.00;100225.94;6272661;28;20128;-74
2021/11/08 04:29:52;;;;;;;56.03;30.00;;;;;;;7.45;100.00;100205.25;6271650;28;20055;-74
2021/11/08 04:42:34;;;;;;;66.07;31.80;;;;;;;7.38;100.00;100190.03;6272609;28;20040;-74
2021/11/08 04:59:01;;;;;;;59.15;31.83;;;;;;;7.84;100.00;100109.94;6270707;28;20044;-70
2021/11/08 05:25:03;;;;;;;60.92;31.77;;;;;;;7.37;100.00;100248.03;6295791;28;20049;-74
2021/11/08 05:31:10;;;;;;;58.55;30.83;;;;;;;7.32;100.00;100245.66;6298715;28;20040;-74
2021/11/08 05:34:12;;;;;;;54.70;30.30;;;;;;;7.24;100.00;100240.78;6301715;28;20177;-74
2021/11/08 05:37:13;;;;;;;58.80;30.90;;;;;;;7.28;100.00;100243.25;6301562;28;20068;-74
2021/11/08 05:40:28;;;;;;;57.00;31.38;;;;;;;7.88;100.00;100250.00;6300152;28;20064;-74
2021/11/08 05:43:29;;;;;;;55.15;29.63;;;;;;;8.07;100.00;100246.53;6301435;28;20041;-74
2021/11/08 05:46:31;;;;;;;59.33;31.33;;;;;;;8.16;100.00;100248.72;6300037;28;20048;-74
2021/11/08 05:49:32;;;;;;;53.70;29.70;;;;;;;8.22;100.00;100245.00;6282590;28;20045;-75
2021/11/08 05:52:33;;;;;;;54.42;30.00;;;;;;;8.22;100.00;100243.22;6280074;28;20503;-75
2021/11/08 05:55:37;;;;;;;53.63;30.00;;;;;;;8.22;100.00;100245.00;6274822;28;20048;-72
2021/11/08 06:51:44;;;;;;;52.13;30.63;;;;;;;7.53;100.00;100311.34;6273575;28;20057;-72
2021/11/08 06:54:47;;;;;;;49.83;29.98;;;;;;;7.55;100.00;100311.28;6273485;28;20040;-75
2021/11/08 06:57:52;;;;;;;48.40;28.35;;;;;;;7.74;100.00;100316.50;6277907;28;20029;-75
2021/11/08 07:00:54;;;;;;;52.35;30.05;;;;;;;7.76;100.00;100317.28;6282081;28;20044;-75
2021/11/08 07:03:55;;;;;;;46.10;28.95;;;;;;;8.22;100.00;100338.56;6291519;28;20120;-71
2021/11/08 07:06:55;;;;;;;49.90;29.13;;;;;;;7.86;100.00;100328.94;6280287;28;20402;-73
2021/11/08 07:09:56;;;;;;;50.60;28.98;;;;;;;7.52;100.00;100327.03;6274385;28;20124;-73
2021/11/08 07:12:57;;;;;;;48.45;28.45;;;;;;;7.49;100.00;100332.34;6275061;28;20097;-70
2021/11/08 07:15:58;;;;;;;50.95;28.13;;;;;;;7.47;100.00;100346.25;6273172;28;20384;-70
2021/11/08 07:18:59;;;;;;;43.95;27.17;;;;;;;7.56;100.00;100346.75;6274010;28;20061;-71
2021/11/08 07:21:59;;;;;;;50.80;29.13;;;;;;;7.58;100.00;100357.91;6271500;28;20045;-73
2021/11/08 07:25:01;;;;;;;46.22;27.42;;;;;;;7.63;100.00;100348.16;6271806;28;20045;-71
2021/11/08 07:28:04;;;;;;;48.60;28.25;;;;;;;7.62;100.00;100343.88;6271249;28;20051;-71
2021/11/08 07:31:05;;;;;;;44.72;27.00;;;;;;;7.65;100.00;100347.16;6255277;28;20037;-70
2021/11/08 07:34:06;;;;;;;43.95;27.55;;;;;;;7.64;100.00;100349.84;6272660;28;20045;-71
2021/11/08 07:37:07;;;;;;;48.33;27.08;;;;;;;7.47;100.00;100369.59;6272571;28;20385;-71
2021/11/08 07:40:09;;;;;;;48.58;27.25;;;;;;;7.42;100.00;100378.50;6272420;28;20045;-71
2021/11/08 07:43:10;;;;;;;47.35;29.10;;;;;;;7.41;100.00;100376.78;6238196;28;20492;-71
2021/11/08 07:46:11;;;;;;;56.28;28.77;;;;;;;7.49;100.00;100385.09;6254548;28;20437;-71
2021/11/08 07:49:12;;;;;;;47.17;28.17;;;;;;;7.56;100.00;100364.94;6270991;28;20045;-72
2021/11/08 07:52:14;;;;;;;46.95;28.50;;;;;;;7.61;100.00;100334.38;6272001;28;20381;-72
2021/11/08 07:55:15;;;;;;;49.75;27.50;;;;;;;7.67;100.00;100326.31;6270840;28;20037;-74
2021/11/08 07:58:16;;;;;;;47.40;26.63;;;;;;;7.63;100.00;100307.44;6272176;28;20045;-74
2021/11/08 08:01:17;;;;;;;68.10;39.85;;;;;;;7.64;100.00;100306.53;6270850;28;20048;-74
2021/11/08 08:04:18;;;;;;;51.40;31.58;;;;;;;7.67;100.00;100321.97;6280678;28;20093;-74
2021/11/08 08:07:19;;;;;;;54.03;29.50;;;;;;;7.77;100.00;100317.22;6288041;28;20059;-74
2021/11/08 08:10:22;;;;;;;44.97;26.45;;;;;;;7.85;100.00;100324.66;6287585;28;20063;-74
2021/11/08 08:13:27;;;;;;;47.38;26.02;;;;;;;7.91;100.00;100321.78;6272329;28;20400;-74
2021/11/08 08:16:29;;;;;;;42.53;25.23;;;;;;;7.94;100.00;100334.63;6270773;28;20128;-74
2021/11/08 08:19:31;;;;;;;48.73;26.30;;;;;;;7.99;100.00;100329.22;6273657;28;20045;-71
2021/11/08 08:22:32;;;;;;;40.38;25.45;;;;;;;8.08;100.00;100336.59;6281683;28;20045;-71
2021/11/08 08:25:33;;;;;;;42.20;26.13;;;;;;;8.14;100.00;100348.47;6271766;28;20045;-70
2021/11/08 08:28:34;;;;;;;42.08;25.88;;;;;;;8.06;100.00;100359.22;6286771;28;20094;-70
2021/11/08 08:31:38;;;;;;;41.13;25.58;;;;;;;7.94;100.00;100357.19;6295047;28;20066;-70
2021/11/08 08:34:38;;;;;;;42.72;26.27;;;;;;;7.87;100.00;100359.22;6296176;28;20048;-71
2021/11/08 08:37:39;;;;;;;46.95;26.42;;;;;;;7.96;100.00;100361.38;6280350;28;20541;-70
2021/11/08 08:40:41;;;;;;;49.20;28.90;;;;;;;7.97;100.00;100372.59;6271184;28;20045;-71
2021/11/08 08:43:41;;;;;;;49.83;29.63;;;;;;;7.90;100.00;100373.81;6270092;28;20399;-71
2021/11/08 08:46:44;;;;;;;45.58;27.90;;;;;;;7.97;100.00;100370.88;6269966;28;20048;-71
2021/11/08 08:49:45;;;;;;;53.25;27.17;;;;;;;7.93;100.00;100360.66;6271177;28;20041;-70
2021/11/08 08:52:47;;;;;;;45.92;26.25;;;;;;;7.91;100.00;100365.09;6270931;28;20223;-70
2021/11/08 08:55:48;;;;;;;48.15;27.48;;;;;;;7.95;100.00;100370.09;6253261;28;20042;-70
2021/11/08 08:58:51;;;;;;;39.30;25.90;;;;;;;8.02;100.00;100366.31;6269921;28;20514;-72
2021/11/08 09:01:57;;;;;;;38.70;25.83;;;;;;;7.93;100.00;100371.94;6270769;28;20041;-71
2021/11/08 09:04:58;;;;;;;38.85;25.17;;;;;;;7.97;100.00;100381.28;6274099;28;20116;-71
2021/11/08 09:08:00;;;;;;;37.90;24.80;;;;;;;7.92;100.00;100375.44;6294532;28;20050;-71
2021/11/08 09:11:01;;;;;;;48.92;26.75;;;;;;;7.91;100.00;100383.28;6277742;28;20061;-70
2021/11/08 09:14:04;;;;;;;43.33;25.97;;;;;;;7.95;100.00;100383.09;6261053;28;20049;-71
2021/11/08 09:17:06;;;;;;;39.83;25.23;;;;;;;8.01;100.00;100403.63;6294776;28;20293;-74
2021/11/08 09:20:12;;;;;;;41.33;24.52;;;;;;;7.98;100.00;100408.09;6294525;28;20048;-73
2021/11/08 09:23:14;;;;;;;40.10;25.58;;;;;;;7.91;100.00;100404.06;6295673;28;20089;-71
2021/11/08 09:26:16;;;;;;;44.05;26.42;;;;;;;7.87;100.00;100395.59;6277848;28;20072;-70
2021/11/08 09:29:18;;;;;;;42.33;25.35;;;;;;;7.82;100.00;100398.41;6295540;28;20119;-71
2021/11/08 09:32:19;;;;;;;42.00;26.25;;;;;;;7.75;100.00;100407.34;6294141;28;20041;-70
2021/11/08 09:35:20;;;;;;;43.85;25.95;;;;;;;7.86;100.00;100414.66;6277500;28;20067;-71
2021/11/08 09:38:23;;;;;;;42.97;26.57;;;;;;;7.54;100.00;100421.28;6294196;28;20483;-70
2021/11/08 09:41:31;;;;;;;;;;;;;;;7.68;100.00;100418.94;6294644;28;20047;-70
2021/11/08 09:44:33;;;;;;;44.25;26.48;;;;;;;7.72;100.00;100417.91;6295277;28;19931;-71
2021/11/08 09:47:34;;;;;;;48.65;29.55;;;;;;;7.88;100.00;100405.88;6295275;28;20056;-71
2021/11/08 09:50:35;;;;;;;47.45;28.60;;;;;;;7.80;100.00;100408.00;6277083;28;20506;-71
2021/11/08 09:53:36;;;;;;;50.08;28.60;;;;;;;7.85;100.00;100413.84;6277372;28;20075;-71
2021/11/08 09:56:41;;;;;;;64.78;30.70;;;;;;;7.85;100.00;100424.22;6295291;28;20048;-71
2021/11/08 09:59:42;;;;;;;50.75;29.70;;;;;;;8.00;100.00;100416.66;6294195;28;20501;-71
2021/11/08 10:02:53;;;;;;;52.90;30.45;;;;;;;8.08;100.00;100420.59;6293814;28;20068;-71
2021/11/08 10:05:56;;;;;;;48.60;30.85;;;;;;;8.13;100.00;100427.34;6293794;28;20068;-71
2021/11/08 10:08:59;;;;;;;53.78;30.88;;;;;;;8.23;100.00;100432.06;6277552;28;20102;-71
2021/11/08 10:11:59;;;;;;;50.97;29.48;;;;;;;8.19;100.00;100438.31;6277198;28;20513;-71
2021/11/08 10:15:00;;;;;;;48.22;28.45;;;;;;;8.24;100.00;100425.13;6293783;28;20044;-71
2021/11/08 10:18:04;;;;;;;48.65;29.08;;;;;;;8.15;100.00;100444.56;6296886;28;20051;-73
2021/11/08 10:21:05;;;;;;;53.20;30.80;;;;;;;8.33;100.00;100442.91;6298417;28;20483;-73
2021/11/08 10:24:11;;;;;;;46.88;28.52;;;;;;;8.40;100.00;100449.50;6291526;28;20048;-74
2021/11/08 10:27:12;;;;;;;41.38;27.67;;;;;;;8.35;100.00;100446.25;6285654;28;20052;-74
2021/11/08 10:30:39;;;;;;;48.42;27.52;;;;;;;8.28;100.00;100457.88;6258944;28;20059;-74
2021/11/08 10:33:42;;;;;;;49.03;28.88;;;;;;;8.40;100.00;100449.50;6320876;28;20057;-74
2021/11/08 10:37:00;;;;;;;74.63;35.45;;;;;;;8.55;100.00;100439.34;6281521;28;20048;-74
2021/11/08 10:40:01;;;;;;;55.35;31.35;;;;;;;8.72;100.00;100439.41;6297848;28;20048;-74
2021/11/08 10:43:02;;;;;;;50.88;31.83;;;;;;;8.78;100.00;100441.72;6297894;28;20056;-74
2021/11/08 10:46:16;;;;;;;54.78;32.20;;;;;;;8.84;100.00;100435.38;6297594;28;20047;-74
2021/11/08 10:49:22;;;;;;;57.35;30.40;;;;;;;8.95;100.00;100432.25;6299124;28;20468;-74
2021/11/08 10:52:29;;;;;;;43.78;28.08;;;;;;;9.03;100.00;100432.72;6297362;28;20131;-74
2021/11/08 10:55:33;;;;;;;45.63;27.42;;;;;;;8.93;100.00;100432.31;6298702;28;20040;-74
2021/11/08 10:58:35;;;;;;;43.40;25.48;;;;;;;8.79;100.00;100438.22;6280723;28;20399;-71
2021/11/08 11:01:42;;;;;;;44.05;26.23;;;;;;;8.63;100.00;100439.84;6298579;28;20037;-71
2021/11/08 11:04:46;;;;;;;43.95;27.10;;;;;;;8.78;100.00;100452.13;6298899;28;20694;-71
2021/11/08 11:07:47;;;;;;;44.67;26.80;;;;;;;8.71;100.00;100442.94;6298443;28;20051;-71
2021/11/08 11:11:02;;;;;;;43.45;26.20;;;;;;;8.78;100.00;100446.06;6296998;28;20045;-70
2021/11/08 11:14:04;;;;;;;43.65;27.83;;;;;;;8.98;100.00;100451.19;6297054;28;20044;-70
2021/11/08 11:17:11;;;;;;;43.53;26.45;;;;;;;9.77;100.00;100434.25;6296765;28;20045;-70
2021/11/08 11:20:18;;;;;;;39.70;24.85;;;;;;;9.54;100.00;100438.88;6298487;28;20068;-70
2021/11/08 11:23:24;;;;;;;40.42;25.70;;;;;;;9.89;100.00;100434.47;6296663;28;20044;-70
2021/11/08 11:26:29;;;;;;;41.05;25.52;;;;;;;9.85;100.00;100435.53;6297895;28;20052;-70
2021/11/08 11:29:30;;;;;;;39.88;26.00;;;;;;;10.13;100.00;100426.28;6263985;28;20045;-70
2021/11/08 11:32:30;;;;;;;46.78;27.00;;;;;;;10.11;100.00;100416.84;6296746;28;20434;-70
2021/11/08 11:35:37;;;;;;;45.17;26.17;;;;;;;9.81;100.00;100418.38;6297513;28;20033;-70
2021/11/08 11:38:49;;;;;;;44.55;26.95;;;;;;;9.45;100.00;100427.16;6296443;28;20036;-70
2021/11/08 11:41:50;;;;;;;44.10;27.58;;;;;;;9.67;100.00;100419.09;6297296;28;20051;-70
2021/11/08 11:45:05;;;;;;;45.22;26.35;;;;;;;9.62;100.00;100412.44;6296116;28;20048;-70
2021/11/08 11:48:07;;;;;;;48.88;27.90;;;;;;;9.78;100.00;100421.16;6297239;28;20049;-74
2021/11/08 11:51:14;;;;;;;47.97;28.83;;;;;;;9.60;100.00;100432.53;6297075;28;20057;-73
2021/11/08 11:54:17;;;;;;;49.38;29.42;;;;;;;9.67;100.00;100421.69;6297243;28;20071;-74
2021/11/08 11:57:21;;;;;;;47.03;29.85;;;;;;;9.56;100.00;100429.22;6295915;28;20460;-73
2021/11/08 12:00:24;;;;;;;51.50;30.25;;;;;;;9.38;100.00;100436.19;6295975;28;20051;-74
2021/11/08 12:03:27;;;;;;;50.17;29.77;;;;;;;9.17;100.00;100438.09;6295639;28;20041;-73
2021/11/08 12:06:36;;;;;;;57.13;31.45;;;;;;;9.15;100.00;100431.28;6295745;28;20048;-73
2021/11/08 12:09:37;;;;;;;46.05;28.13;;;;;;;8.84;100.00;100428.41;6294917;28;20059;-73
2021/11/08 12:12:38;;;;;;;51.70;29.48;;;;;;;8.75;100.00;100439.28;6278493;28;20127;-73
2021/11/08 12:15:39;;;;;;;56.00;29.17;;;;;;;8.82;100.00;100432.00;6271839;28;20419;-73
2021/11/08 12:18:41;;;;;;;48.97;26.80;;;;;;;9.03;100.00;100436.16;6276793;28;20041;-73
2021/11/08 12:21:42;;;;;;;54.13;26.77;;;;;;;9.02;100.00;100429.28;6296524;28;20097;-73
2021/11/08 12:24:58;;;;;;;46.85;27.30;;;;;;;8.89;100.00;100422.97;6295356;28;20045;-73
2021/11/08 12:28:12;;;;;;;45.10;26.40;;;;;;;9.10;100.00;100425.47;6283077;28;20072;-73
2021/11/08 12:31:22;;;;;;;50.47;27.52;;;;;;;9.14;100.00;100425.25;6271571;28;20037;-73
2021/11/08 12:34:23;;;;;;;44.28;27.83;;;;;;;8.99;100.00;100432.03;6253543;28;20049;-73
2021/11/08 12:37:35;;;;;;;49.95;26.65;;;;;;;8.99;100.00;100433.78;6278204;28;20506;-73
2021/11/08 12:40:36;;;;;;;51.60;28.50;;;;;;;9.04;100.00;100437.03;6295166;28;20043;-73
2021/11/08 12:43:47;;;;;;;43.45;26.13;;;;;;;8.85;100.00;100440.53;6294902;28;20041;-73
2021/11/08 12:46:56;;;;;;;40.72;23.70;;;;;;;9.06;100.00;100437.81;6290506;28;20064;-73
2021/11/08 12:49:57;;;;;;;41.97;24.08;;;;;;;9.04;100.00;100443.06;6271091;28;20045;-73
2021/11/08 12:52:59;;;;;;;47.92;26.67;;;;;;;9.05;100.00;100444.75;6269903;28;20087;-73
2021/11/08 12:56:07;;;;;;;43.00;26.42;;;;;;;8.99;100.00;100442.44;6253501;28;20044;-73
2021/11/08 12:59:20;;;;;;;41.63;23.27;;;;;;;8.95;100.00;100447.88;6271017;28;20037;-73
2021/11/08 13:02:41;;;;;;;39.83;23.05;;;;;;;8.81;100.00;100448.53;6269740;28;20041;-73
2021/11/08 13:05:47;;;;;;;42.30;24.13;;;;;;;8.87;100.00;100443.03;6309565;28;20090;-73
2021/11/08 13:08:48;;;;;;;41.00;23.67;;;;;;;8.95;100.00;100453.06;6294637;28;20045;-73
2021/11/08 13:11:54;;;;;;;42.72;23.60;;;;;;;8.99;100.00;100447.63;6294546;28;20541;-73
2021/11/08 13:15:12;;;;;;;44.35;24.35;;;;;;;8.92;100.00;100451.47;6295691;28;20484;-73
2021/11/08 13:18:13;;;;;;;42.38;23.95;;;;;;;8.85;100.00;100456.13;6294352;28;20041;-73
2021/11/08 13:21:24;;;;;;;46.35;23.73;;;;;;;9.08;100.00;100448.97;6295656;28;20125;-73
2021/11/08 13:24:25;;;;;;;38.55;23.17;;;;;;;8.43;100.00;100446.78;6294236;28;20089;-73
2021/11/08 13:27:26;;;;;;;41.20;22.77;;;;;;;8.14;100.00;100449.84;6295665;28;20044;-73
2021/11/08 13:30:39;;;;;;;41.15;23.05;;;;;;;8.63;100.00;100455.44;6256825;28;20414;-73
2021/11/08 13:33:44;;;;;;;39.63;23.92;;;;;;;8.96;100.00;100452.19;6272398;28;20106;-73
2021/11/08 13:36:47;;;;;;;43.10;25.60;;;;;;;9.06;100.00;100451.66;6277892;28;20047;-73
2021/11/08 13:39:51;;;;;;;43.92;24.13;;;;;;;9.11;100.00;100451.41;6282394;28;20044;-73
2021/11/08 13:42:52;;;;;;;45.70;25.02;;;;;;;9.26;100.00;100460.25;6311824;28;20065;-73
2021/11/08 13:46:01;;;;;;;42.22;24.83;;;;;;;9.17;100.00;100460.69;6294236;28;20505;-73
2021/11/08 13:49:10;;;;;;;46.30;24.77;;;;;;;9.12;100.00;100460.94;6295462;28;20040;-73
2021/11/08 13:52:12;;;;;;;43.42;22.85;;;;;;;8.86;100.00;100455.19;6296898;28;20057;-73
2021/11/08 13:55:15;;;;;;;40.25;23.88;;;;;;;8.72;100.00;100465.41;6298413;28;20355;-73
2021/11/08 13:58:19;;;;;;;;;;;;;;;8.53;100.00;100467.19;6299036;28;20463;-73
2021/11/08 14:01:21;;;;;;;39.72;22.30;;;;;;;8.65;100.00;100467.47;6299629;28;19970;-73
2021/11/08 14:04:43;;;;;;;40.45;22.92;;;;;;;8.99;100.00;100458.06;6300101;28;20049;-73
2021/11/08 14:07:44;;;;;;;49.05;26.25;;;;;;;8.68;100.00;100463.88;6298328;28;20049;-73
2021/11/08 14:10:57;;;;;;;44.92;24.48;;;;;;;8.04;100.00;100458.03;6299550;28;20047;-69
2021/11/08 14:14:03;;;;;;;38.80;22.98;;;;;;;8.01;100.00;100465.13;6298136;28;20106;-69
2021/11/08 14:17:13;;;;;;;43.58;23.95;;;;;;;8.82;100.00;100461.47;6299207;28;20049;-69
2021/11/08 14:20:14;;;;;;;43.10;24.48;;;;;;;8.94;100.00;100461.81;6299260;28;20079;-73
2021/11/08 14:23:14;;;;;;;41.60;22.95;;;;;;;9.01;100.00;100473.59;6298205;28;20045;-69
2021/11/08 14:26:17;;;;;;;42.30;22.58;;;;;;;9.05;100.00;100468.16;6298099;28;20036;-69
2021/11/08 14:29:21;;;;;;;42.33;23.88;;;;;;;9.08;100.00;100462.84;6297749;28;20124;-70
2021/11/08 14:32:28;;;;;;;43.70;24.33;;;;;;;9.10;100.00;100472.31;6291651;28;20407;-70
2021/11/08 14:35:31;;;;;;;42.70;24.52;;;;;;;8.98;100.00;100474.59;6274522;28;20049;-69
2021/11/08 14:38:46;;;;;;;;;;;;;;;8.96;100.00;100486.00;6273346;28;20043;-69
2021/11/08 14:42:03;;;;;;;42.53;23.10;;;;;;;8.94;100.00;100475.66;6274143;28;19925;-69
2021/11/08 14:45:05;;;;;;;42.78;23.17;;;;;;;8.81;100.00;100479.75;6273923;28;20044;-70
2021/11/08 14:48:07;;;;;;;40.97;23.30;;;;;;;8.72;100.00;100493.19;6273898;28;20041;-70
2021/11/08 14:51:14;;;;;;;49.65;28.58;;;;;;;8.64;100.00;100494.38;6264663;28;20049;-70
2021/11/08 14:54:15;;;;;;;58.50;33.97;;;;;;;8.53;100.00;100501.00;6282382;28;20048;-69
2021/11/08 14:57:16;;;;;;;51.63;30.07;;;;;;;8.42;100.00;100499.72;6273590;28;20517;-69
2021/11/08 15:00:25;;;;;;;52.50;31.58;;;;;;;8.51;100.00;100502.84;6278792;28;20041;-69
2021/11/08 15:03:26;;;;;;;85.45;42.95;;;;;;;8.53;100.00;100519.22;6273875;28;20087;-69
2021/11/08 15:06:27;;;;;;;63.72;36.47;;;;;;;8.49;100.00;100502.06;6272352;28;20049;-73
2021/11/08 15:09:40;;;;;;;70.95;36.08;;;;;;;8.52;100.00;100501.91;6298817;28;20044;-73
2021/11/08 15:12:44;;;;;;;60.97;33.83;;;;;;;8.42;100.00;100494.53;6298273;28;20066;-73
2021/11/08 15:15:47;;;;;;;52.85;31.33;;;;;;;8.28;100.00;100497.72;6296923;28;20045;-73
2021/11/08 15:18:48;;;;;;;53.67;31.15;;;;;;;8.29;100.00;100493.34;6278918;28;20041;-73
2021/11/08 15:21:59;;;;;;;50.50;28.65;;;;;;;8.28;100.00;100499.47;6272170;28;20048;-69
2021/11/08 15:25:16;;;;;;;52.42;29.50;;;;;;;8.28;100.00;100505.50;6286125;28;20413;-69
2021/11/08 15:28:31;;;;;;;60.47;32.95;;;;;;;8.17;100.00;100502.53;6298112;28;20093;-69
2021/11/08 15:31:34;;;;;;;67.47;34.83;;;;;;;8.04;100.00;100491.81;6281187;28;20048;-70
2021/11/08 15:34:35;;;;;;;58.92;31.38;;;;;;;7.82;100.00;100488.47;6271533;28;20060;-69
2021/11/08 15:37:50;;;;;;;73.25;39.17;;;;;;;7.72;100.00;100477.63;6272703;28;20048;-69
2021/11/08 15:40:52;;;;;;;81.57;46.08;;;;;;;7.61;100.00;100479.81;6271555;28;20045;-69